KCMI

University of Illinois-Willard Airport

Champaign/Urbana, Illinois, USA
METAR KCMI 231053Z AUTO 33010KT 10SM CLR 02/M01 A3019 RMK AO2 SLP227 T00171011
Observed Flight Rules
Oct-23 @ 10:53 UTC (56 minutes ago) Visual Flight Rules
Wind Visibility Clouds
330° at 10 knots 10 miles
  • Clear skies
Temperatures Readings
Current 2°C / 36°F
Dewpoint -1°C / 30°F
Humidity 81%
Altimeter 30.19" Hg
Pressure 1022.7 hPa
Elevation 228
METAR KCMI 231053Z AUTO 33010KT 10SM CLR 02/M01 A3019 RMK AO2 SLP227 T00171011
Observed Flight Rules
Oct-23 @ 10:53 UTC
(56 minutes ago)
VFR
Wind Visibility
330° at 10 knots 10 miles
Clouds
  • Clear skies
Temperature Dewpoint
2°C / 36°F -1°C / 30°F
Humidity Altimeter Pressure
81% 30.19" Hg 1022.7 hPa